Time;durP1;ratioP1;P1;durP2;ratioP2;P2;SDS_P1;SDS_P2;PMS_P1;PMS_P2;Temp;Humidity;BMP_temperature;BMP_pressure;BME280_temperature;BME280_humidity;BME280_pressure;Samples;Min_cycle;Max_cycle;Signal;HPM_P1;HPM_P2
2023/12/31 00:01:10;;;;;;;3.00;1.58;;;10.40;99.90;;;;;;6336506;22;20011;-88
2023/12/31 00:03:36;;;;;;;3.42;1.23;;;10.40;99.90;;;;;;6338097;22;20025;-88
2023/12/31 00:06:02;;;;;;;2.15;1.10;;;10.30;99.90;;;;;;6356555;22;20058;-87
2023/12/31 00:08:29;;;;;;;2.47;1.48;;;10.30;99.90;;;;;;6342641;22;20003;-87
2023/12/31 00:10:55;;;;;;;3.28;1.40;;;10.30;99.90;;;;;;6338043;22;20077;-88
2023/12/31 00:13:22;;;;;;;4.70;1.45;;;10.40;99.90;;;;;;6338896;22;20009;-89
2023/12/31 00:15:48;;;;;;;5.88;1.60;;;10.30;99.90;;;;;;6338739;22;20007;-88
2023/12/31 00:18:15;;;;;;;5.13;1.40;;;10.30;99.90;;;;;;6339548;22;20021;-88
2023/12/31 00:20:41;;;;;;;3.55;1.30;;;10.30;99.90;;;;;;6339074;22;20056;-90
2023/12/31 00:23:13;;;;;;;3.47;1.10;;;10.30;99.90;;;;;;6338969;22;20036;-88
2023/12/31 00:25:43;;;;;;;4.88;1.40;;;10.40;99.90;;;;;;6339408;22;20003;-88
2023/12/31 00:28:10;;;;;;;5.65;1.48;;;10.40;99.90;;;;;;6340272;22;20003;-89
2023/12/31 00:30:36;;;;;;;4.80;1.88;;;11.30;99.90;;;;;;6338382;22;20007;-89
2023/12/31 00:33:04;;;;;;;2.97;0.85;;;10.40;99.90;;;;;;6339296;22;20073;-89
2023/12/31 00:35:29;;;;;;;2.90;0.80;;;10.30;99.90;;;;;;6340174;22;20002;-88
2023/12/31 00:37:55;;;;;;;1.75;1.10;;;10.30;99.90;;;;;;6339539;22;20013;-88
2023/12/31 00:40:23;;;;;;;5.13;0.90;;;11.30;99.90;;;;;;6340439;22;20011;-90
2023/12/31 00:42:54;;;;;;;1.85;0.90;;;10.30;99.90;;;;;;6338891;22;20079;-90
2023/12/31 00:45:26;;;;;;;1.17;0.82;;;10.30;99.90;;;;;;6346618;22;20055;-89
2023/12/31 00:47:53;;;;;;;3.45;0.98;;;10.70;99.90;;;;;;6338758;22;19999;-88
2023/12/31 00:50:19;;;;;;;2.22;0.82;;;10.40;99.90;;;;;;6337978;22;20074;-88
2023/12/31 00:52:47;;;;;;;1.83;0.93;;;10.30;99.90;;;;;;6339132;22;20007;-88
2023/12/31 00:55:13;;;;;;;2.75;1.00;;;10.40;99.90;;;;;;6338387;22;20010;-89
2023/12/31 00:57:40;;;;;;;3.20;0.80;;;10.30;99.90;;;;;;6338262;22;20006;-89
2023/12/31 01:00:16;;;;;;;2.35;0.90;;;10.40;99.90;;;;;;6339544;22;20046;-89
2023/12/31 01:02:42;;;;;;;7.30;1.63;;;10.30;99.90;;;;;;6339416;22;20003;-90
2023/12/31 01:05:08;;;;;;;4.25;1.42;;;10.40;99.90;;;;;;6339259;22;20080;-89
2023/12/31 01:07:33;;;;;;;4.10;1.00;;;10.30;99.90;;;;;;6339619;22;20009;-89
2023/12/31 01:09:59;;;;;;;1.95;0.95;;;10.40;99.90;;;;;;6341453;22;20013;-88
2023/12/31 01:12:24;;;;;;;2.38;1.35;;;10.40;99.90;;;;;;6339155;22;20389;-89
2023/12/31 01:14:50;;;;;;;2.72;0.80;;;10.30;99.90;;;;;;6339202;22;19998;-88
2023/12/31 01:17:16;;;;;;;1.35;1.00;;;10.30;99.90;;;;;;6341212;22;19995;-89
2023/12/31 01:19:41;;;;;;;1.95;1.08;;;10.40;99.90;;;;;;6341340;22;20014;-88
2023/12/31 01:22:07;;;;;;;1.38;0.90;;;10.30;99.90;;;;;;6339619;22;20441;-89
2023/12/31 01:24:32;;;;;;;3.30;1.05;;;10.30;99.90;;;;;;6341559;22;20443;-89
2023/12/31 01:26:58;;;;;;;1.05;0.70;;;10.30;99.90;;;;;;6345365;22;20431;-88
2023/12/31 01:29:23;;;;;;;2.47;1.40;;;10.30;99.90;;;;;;6357255;22;20002;-88
2023/12/31 01:31:49;;;;;;;2.70;0.88;;;10.30;99.90;;;;;;6355199;22;19995;-88
2023/12/31 01:34:16;;;;;;;2.85;1.17;;;10.30;99.90;;;;;;6347658;22;20308;-88
2023/12/31 01:36:41;;;;;;;2.47;1.35;;;10.30;99.90;;;;;;6339004;22;20006;-89
2023/12/31 01:39:08;;;;;;;2.97;1.48;;;10.30;99.90;;;;;;6338175;22;20002;-89
2023/12/31 01:41:34;;;;;;;2.92;0.80;;;10.30;99.90;;;;;;6336958;22;20010;-89
2023/12/31 01:44:06;;;;;;;2.85;1.20;;;10.30;99.90;;;;;;6337019;22;19999;-88
2023/12/31 01:46:46;;;;;;;1.48;0.80;;;11.20;99.90;;;;;;6338419;22;20431;-88
2023/12/31 01:49:12;;;;;;;1.48;0.80;;;11.60;99.90;;;;;;6338716;22;19999;-88
2023/12/31 01:51:43;;;;;;;2.80;1.00;;;10.30;99.90;;;;;;6340915;22;20407;-88
2023/12/31 01:54:18;;;;;;;;;;;10.30;99.90;;;;;;6339178;22;19999;-89
2023/12/31 01:57:09;;;;;;;2.15;1.40;;;10.30;99.90;;;;;;6334221;22;20311;-90
2023/12/31 01:59:36;;;;;;;2.20;1.20;;;10.30;99.90;;;;;;6330902;22;20094;-89
2023/12/31 02:02:04;;;;;;;6.22;1.10;;;10.30;99.90;;;;;;6338472;22;20074;-89
2023/12/31 02:04:34;;;;;;;3.33;1.52;;;10.30;99.90;;;;;;6339191;22;20335;-89
2023/12/31 02:07:00;;;;;;;4.50;1.10;;;10.30;99.90;;;;;;6341074;22;19999;-88
2023/12/31 02:09:32;;;;;;;5.55;1.00;;;10.30;99.90;;;;;;6340514;22;20014;-88
2023/12/31 02:12:01;;;;;;;3.42;1.00;;;10.30;99.90;;;;;;6338212;22;20407;-89
2023/12/31 02:14:27;;;;;;;1.17;0.90;;;10.30;99.90;;;;;;6338575;22;19999;-89
2023/12/31 02:16:52;;;;;;;2.28;0.90;;;10.30;99.90;;;;;;6337738;22;20314;-87
2023/12/31 02:19:19;;;;;;;5.60;1.00;;;10.30;99.90;;;;;;6338654;22;20007;-91
2023/12/31 02:21:46;;;;;;;6.53;1.10;;;10.30;99.90;;;;;;6336901;22;20033;-89
2023/12/31 02:24:15;;;;;;;2.63;1.05;;;10.30;99.90;;;;;;6338961;22;20007;-87
2023/12/31 02:26:40;;;;;;;3.38;1.30;;;10.30;99.90;;;;;;6338845;22;19999;-88
2023/12/31 02:29:07;;;;;;;1.35;1.02;;;10.30;99.90;;;;;;6313674;22;20003;-88
2023/12/31 02:31:35;;;;;;;3.85;1.02;;;10.20;99.90;;;;;;6339300;22;20070;-89
2023/12/31 02:34:01;;;;;;;1.33;1.20;;;10.20;99.90;;;;;;6339770;22;20003;-89
2023/12/31 02:36:30;;;;;;;1.10;1.00;;;10.20;99.90;;;;;;6337777;22;20072;-91
2023/12/31 02:38:55;;;;;;;2.60;1.38;;;10.20;99.90;;;;;;6337470;22;20022;-88
2023/12/31 02:41:24;;;;;;;3.45;1.30;;;10.40;99.90;;;;;;6337766;22;19995;-87
2023/12/31 02:43:51;;;;;;;1.75;1.27;;;10.20;99.90;;;;;;6337888;22;20045;-89
2023/12/31 02:46:19;;;;;;;2.35;1.08;;;10.20;99.90;;;;;;6338538;22;20003;-89
2023/12/31 02:48:44;;;;;;;2.63;0.90;;;10.20;99.90;;;;;;6337507;22;20002;-88
2023/12/31 02:51:17;;;;;;;2.13;0.90;;;10.20;99.90;;;;;;6337942;22;19999;-88
2023/12/31 02:53:42;;;;;;;3.72;1.27;;;10.20;99.90;;;;;;6342501;22;19999;-87
2023/12/31 02:56:08;;;;;;;3.92;1.30;;;10.20;99.90;;;;;;6338522;22;19999;-87
2023/12/31 02:58:34;;;;;;;2.85;1.00;;;10.80;99.90;;;;;;6336506;22;20017;-87
2023/12/31 03:01:00;;;;;;;1.45;1.20;;;10.10;99.90;;;;;;6337674;22;20003;-88
2023/12/31 03:03:25;;;;;;;1.73;1.33;;;10.00;99.90;;;;;;6337768;22;20002;-89
2023/12/31 03:05:52;;;;;;;2.33;1.08;;;10.00;99.90;;;;;;6336698;22;20060;-87
2023/12/31 03:08:20;;;;;;;4.57;1.35;;;10.10;99.90;;;;;;6337635;22;20044;-88
2023/12/31 03:10:47;;;;;;;2.22;1.30;;;10.10;99.90;;;;;;6337585;22;20659;-88
2023/12/31 03:13:14;;;;;;;1.95;0.90;;;10.00;99.90;;;;;;6336709;22;20466;-87
2023/12/31 03:15:40;;;;;;;2.03;1.27;;;10.00;99.90;;;;;;6336907;22;20476;-86
2023/12/31 03:18:05;;;;;;;3.83;1.58;;;10.00;99.90;;;;;;6336839;22;19999;-87
2023/12/31 03:20:33;;;;;;;1.33;1.23;;;10.00;99.90;;;;;;6337838;22;20011;-87
2023/12/31 03:23:00;;;;;;;1.75;1.20;;;10.00;99.90;;;;;;6338175;22;19995;-86
2023/12/31 03:25:25;;;;;;;3.17;1.02;;;10.00;99.90;;;;;;6338000;22;20085;-86
2023/12/31 03:27:52;;;;;;;1.83;1.38;;;10.00;99.90;;;;;;6339129;22;20023;-87
2023/12/31 03:30:19;;;;;;;3.60;1.05;;;10.00;99.90;;;;;;6339618;22;19994;-86
2023/12/31 03:32:45;;;;;;;2.50;1.00;;;9.90;99.90;;;;;;6338594;22;20078;-87
2023/12/31 03:35:11;;;;;;;1.60;1.10;;;9.90;99.90;;;;;;6339629;22;20048;-87
2023/12/31 03:37:36;;;;;;;2.67;1.10;;;9.90;99.90;;;;;;6339650;22;20070;-87
2023/12/31 03:40:03;;;;;;;4.47;1.27;;;10.00;99.90;;;;;;6338894;22;20007;-88
2023/12/31 03:42:30;;;;;;;1.80;1.10;;;9.90;99.90;;;;;;6337314;22;20379;-87
2023/12/31 03:44:56;;;;;;;2.55;1.20;;;9.90;99.90;;;;;;6340384;22;20007;-86
2023/12/31 03:47:23;;;;;;;1.40;0.90;;;9.90;99.90;;;;;;6338158;22;19999;-86
2023/12/31 03:49:48;;;;;;;2.53;1.08;;;9.90;99.90;;;;;;6338355;22;20074;-87
2023/12/31 03:52:14;;;;;;;2.47;1.33;;;9.90;99.90;;;;;;6337739;22;20386;-86
2023/12/31 03:54:43;;;;;;;1.65;1.20;;;9.90;99.90;;;;;;6337944;22;20006;-86
2023/12/31 03:57:10;;;;;;;1.27;0.93;;;9.90;99.90;;;;;;6338105;22;20060;-87
2023/12/31 03:59:35;;;;;;;1.42;1.15;;;9.90;99.90;;;;;;6338465;22;20017;-87
2023/12/31 04:02:02;;;;;;;3.40;1.17;;;9.80;99.90;;;;;;6338840;22;19999;-87
2023/12/31 04:04:29;;;;;;;2.55;1.35;;;9.80;99.90;;;;;;6339293;22;20013;-88
2023/12/31 04:06:56;;;;;;;1.48;1.15;;;9.80;99.90;;;;;;6339150;22;20074;-87
2023/12/31 04:09:22;;;;;;;3.40;1.35;;;9.80;99.90;;;;;;6337764;22;20429;-87
2023/12/31 04:11:48;;;;;;;2.65;1.45;;;9.80;99.90;;;;;;6341592;22;20089;-87
2023/12/31 04:14:14;;;;;;;2.15;1.33;;;9.80;99.90;;;;;;6337481;22;20090;-87
2023/12/31 04:16:41;;;;;;;1.98;1.35;;;9.80;99.90;;;;;;6338552;22;20103;-87
2023/12/31 04:19:07;;;;;;;2.63;1.55;;;9.80;99.90;;;;;;6339912;22;20041;-87
2023/12/31 04:21:33;;;;;;;2.80;1.58;;;10.60;99.90;;;;;;6339789;22;20415;-87
2023/12/31 04:24:00;;;;;;;1.35;1.25;;;9.80;99.90;;;;;;6339281;22;20541;-87
2023/12/31 04:26:26;;;;;;;3.90;1.38;;;9.70;99.90;;;;;;6342400;22;20003;-87
2023/12/31 04:28:51;;;;;;;1.38;0.95;;;9.80;99.90;;;;;;6348418;22;20024;-86
2023/12/31 04:31:18;;;;;;;1.77;1.40;;;9.80;99.90;;;;;;6348287;22;20003;-86
2023/12/31 04:33:44;;;;;;;4.60;1.73;;;9.80;99.90;;;;;;6340857;22;20007;-88
2023/12/31 04:36:10;;;;;;;3.08;1.50;;;9.80;99.90;;;;;;6338494;22;20424;-87
2023/12/31 04:38:37;;;;;;;1.58;1.40;;;9.80;99.90;;;;;;6339706;22;20007;-86
2023/12/31 04:41:05;;;;;;;2.88;1.30;;;9.80;99.90;;;;;;6338858;22;20480;-86
2023/12/31 04:43:33;;;;;;;1.90;1.17;;;9.80;99.90;;;;;;6337555;22;20013;-87
2023/12/31 04:46:03;;;;;;;2.05;1.27;;;9.70;99.90;;;;;;6338850;22;20322;-87
2023/12/31 04:48:30;;;;;;;1.48;1.25;;;9.80;99.90;;;;;;6337874;22;20017;-86
2023/12/31 04:50:55;;;;;;;1.40;1.27;;;10.70;99.90;;;;;;6339542;22;19995;-88
2023/12/31 04:53:22;;;;;;;2.38;1.42;;;9.80;99.90;;;;;;6337234;22;20010;-88
2023/12/31 04:55:48;;;;;;;2.53;1.60;;;9.90;99.90;;;;;;6337873;22;20014;-86
2023/12/31 04:58:14;;;;;;;2.83;1.40;;;9.80;99.90;;;;;;6336480;22;20014;-86
2023/12/31 05:00:42;;;;;;;1.60;1.27;;;9.90;99.90;;;;;;6337608;22;20007;-87
2023/12/31 05:03:08;;;;;;;1.95;1.10;;;9.80;99.90;;;;;;6339113;22;19995;-87
2023/12/31 05:05:35;;;;;;;2.15;1.48;;;9.80;99.90;;;;;;6336649;22;20076;-87
2023/12/31 05:08:01;;;;;;;1.40;1.30;;;9.90;99.90;;;;;;6338182;22;19998;-87
2023/12/31 05:10:28;;;;;;;3.88;1.65;;;9.90;99.90;;;;;;6337243;22;20003;-86
2023/12/31 05:12:53;;;;;;;1.88;1.40;;;9.90;99.90;;;;;;6336845;22;20010;-86
2023/12/31 05:15:19;;;;;;;1.90;1.65;;;9.90;99.90;;;;;;6337700;22;20010;-86
2023/12/31 05:17:45;;;;;;;3.20;1.58;;;9.90;99.90;;;;;;6337816;22;20003;-87
2023/12/31 05:20:11;;;;;;;1.95;1.60;;;9.90;99.90;;;;;;6335996;22;20049;-87
2023/12/31 05:22:37;;;;;;;2.50;1.48;;;9.90;99.90;;;;;;6338267;22;20003;-87
2023/12/31 05:25:02;;;;;;;1.77;1.33;;;9.90;99.90;;;;;;6337799;22;20002;-87
2023/12/31 05:27:29;;;;;;;2.00;1.70;;;9.90;99.90;;;;;;6338520;22;20014;-86
2023/12/31 05:29:54;;;;;;;3.33;1.40;;;9.90;99.90;;;;;;6337393;22;19999;-87
2023/12/31 05:32:20;;;;;;;3.20;1.40;;;9.90;99.90;;;;;;6337098;22;20040;-87
2023/12/31 05:34:47;;;;;;;1.67;1.58;;;9.90;99.90;;;;;;6338000;22;20422;-87
2023/12/31 05:37:14;;;;;;;2.22;1.67;;;9.90;99.90;;;;;;6338705;22;20003;-86
2023/12/31 05:39:40;;;;;;;7.32;1.75;;;9.90;99.90;;;;;;6337454;22;20045;-86
2023/12/31 05:42:06;;;;;;;4.22;1.65;;;9.90;99.90;;;;;;6341221;22;20007;-87
2023/12/31 05:44:33;;;;;;;1.55;1.45;;;9.90;99.90;;;;;;6340026;22;20086;-88
2023/12/31 05:46:58;;;;;;;2.55;1.70;;;9.90;99.90;;;;;;6338339;22;20003;-88
2023/12/31 05:49:25;;;;;;;2.90;1.50;;;9.90;99.90;;;;;;6338331;22;20003;-87
2023/12/31 05:51:51;;;;;;;2.13;1.42;;;9.90;99.90;;;;;;6337641;22;19999;-87
2023/12/31 05:54:16;;;;;;;2.78;1.77;;;10.00;99.90;;;;;;6336372;22;20010;-87
2023/12/31 05:56:42;;;;;;;1.80;1.33;;;9.90;99.90;;;;;;6340774;22;20046;-89
2023/12/31 05:59:07;;;;;;;1.48;1.38;;;10.00;99.90;;;;;;6338214;22;20002;-90
2023/12/31 06:01:34;;;;;;;2.17;1.63;;;9.90;99.90;;;;;;6334139;22;20010;-87
2023/12/31 06:04:02;;;;;;;4.00;1.90;;;9.90;99.90;;;;;;6336674;22;20006;-87
2023/12/31 06:06:33;;;;;;;2.17;1.98;;;9.90;99.90;;;;;;6333424;22;20124;-85
2023/12/31 06:08:59;;;;;;;1.50;1.40;;;10.00;99.90;;;;;;6332705;22;20028;-87
2023/12/31 06:11:25;;;;;;;5.65;1.83;;;10.00;99.90;;;;;;6333663;22;20500;-86
2023/12/31 06:13:51;;;;;;;2.65;1.85;;;10.00;99.90;;;;;;6330168;22;20009;-86
2023/12/31 06:16:18;;;;;;;3.42;2.22;;;10.00;99.90;;;;;;6337107;22;19999;-87
2023/12/31 06:18:44;;;;;;;2.38;2.17;;;10.00;99.90;;;;;;6335453;22;20059;-87
2023/12/31 06:21:11;;;;;;;3.63;2.17;;;10.00;99.90;;;;;;6337043;22;20423;-87
2023/12/31 06:23:38;;;;;;;3.05;1.50;;;10.00;99.90;;;;;;6334534;22;20038;-87
2023/12/31 06:26:05;;;;;;;2.35;2.10;;;10.10;99.90;;;;;;6335864;22;20014;-88
2023/12/31 06:28:31;;;;;;;1.98;1.75;;;10.10;99.90;;;;;;6337123;22;20003;-87
2023/12/31 06:30:57;;;;;;;2.40;1.77;;;10.10;99.90;;;;;;6336938;22;19995;-86
2023/12/31 06:33:24;;;;;;;2.97;1.92;;;10.10;99.90;;;;;;6331542;22;20097;-87
2023/12/31 06:35:50;;;;;;;2.00;1.80;;;10.10;99.90;;;;;;6336756;22;20437;-87
2023/12/31 06:38:15;;;;;;;1.95;1.77;;;10.10;99.90;;;;;;6334123;22;20038;-87
2023/12/31 06:40:41;;;;;;;4.30;1.92;;;10.10;99.90;;;;;;6339524;22;19999;-85
2023/12/31 06:43:08;;;;;;;3.35;1.90;;;10.10;99.90;;;;;;6338287;22;19998;-87
2023/12/31 06:45:33;;;;;;;1.88;1.70;;;10.10;99.90;;;;;;6338775;22;20009;-90
2023/12/31 06:48:00;;;;;;;2.60;1.77;;;10.10;99.90;;;;;;6339352;22;20026;-90
2023/12/31 06:50:38;;;;;;;2.53;2.00;;;10.10;99.90;;;;;;6339666;22;20010;-87
2023/12/31 06:53:04;;;;;;;2.35;2.15;;;10.10;99.90;;;;;;6337450;22;20077;-88
2023/12/31 06:55:32;;;;;;;1.83;1.52;;;10.10;99.90;;;;;;6337958;22;20070;-89
2023/12/31 06:58:03;;;;;;;4.38;2.10;;;10.10;99.90;;;;;;6337687;22;20018;-90
2023/12/31 07:00:30;;;;;;;2.15;1.70;;;10.10;99.90;;;;;;6338428;22;20038;-89
2023/12/31 07:02:56;;;;;;;3.47;1.90;;;10.10;99.90;;;;;;6340261;22;20128;-88
2023/12/31 07:05:21;;;;;;;5.18;2.28;;;10.20;99.90;;;;;;6340706;22;19999;-87
2023/12/31 07:07:47;;;;;;;2.42;1.83;;;10.20;99.90;;;;;;6339874;22;20044;-89
2023/12/31 07:10:18;;;;;;;1.80;1.67;;;10.20;99.90;;;;;;6338822;22;20007;-89
2023/12/31 07:12:45;;;;;;;2.42;2.22;;;10.20;99.90;;;;;;6337431;22;20009;-88
2023/12/31 07:15:17;;;;;;;2.88;2.35;;;10.20;99.90;;;;;;6338582;22;20024;-89
2023/12/31 07:17:44;;;;;;;1.77;1.67;;;10.20;99.90;;;;;;6338733;22;20006;-89
2023/12/31 07:20:12;;;;;;;2.70;2.00;;;10.20;99.90;;;;;;6335603;22;20007;-90
2023/12/31 07:22:38;;;;;;;2.60;1.98;;;10.20;99.90;;;;;;6340027;22;20003;-91
2023/12/31 07:25:05;;;;;;;2.03;1.80;;;10.20;99.90;;;;;;6336757;22;19994;-89
2023/12/31 07:27:31;;;;;;;2.47;1.92;;;10.20;99.90;;;;;;6339822;22;20054;-90
2023/12/31 07:29:56;;;;;;;2.13;1.75;;;10.20;99.90;;;;;;6342117;22;19998;-89
2023/12/31 07:32:22;;;;;;;1.92;1.73;;;10.20;99.90;;;;;;6357984;22;20010;-90
2023/12/31 07:34:48;;;;;;;2.72;1.88;;;10.20;99.90;;;;;;6361822;22;20018;-90
2023/12/31 07:37:14;;;;;;;2.22;1.77;;;10.20;99.90;;;;;;6358385;22;20076;-90
2023/12/31 07:39:41;;;;;;;3.58;2.38;;;10.20;99.90;;;;;;6338510;22;20015;-86
2023/12/31 07:42:16;;;;;;;1.88;1.65;;;10.20;99.90;;;;;;6340708;22;20056;-91
2023/12/31 07:44:41;;;;;;;1.92;1.70;;;10.30;99.90;;;;;;6338671;22;20002;-90
2023/12/31 07:47:09;;;;;;;2.50;1.73;;;10.20;99.90;;;;;;6338520;22;20453;-89
2023/12/31 07:49:36;;;;;;;3.50;1.85;;;10.20;99.90;;;;;;6343448;22;20002;-92
2023/12/31 07:52:05;;;;;;;2.00;1.77;;;10.20;99.90;;;;;;6340454;22;20001;-91
2023/12/31 07:54:31;;;;;;;2.53;2.17;;;10.20;99.90;;;;;;6339128;22;20003;-89
2023/12/31 07:56:57;;;;;;;2.22;1.90;;;10.50;99.90;;;;;;6340334;22;20431;-90
2023/12/31 07:59:28;;;;;;;2.25;1.80;;;10.20;99.90;;;;;;6344345;22;20026;-89
2023/12/31 08:01:54;;;;;;;3.40;2.13;;;10.20;99.90;;;;;;6334514;22;20093;-92
2023/12/31 08:04:38;;;;;;;3.28;1.80;;;11.00;99.90;;;;;;6340799;22;20010;-92
2023/12/31 08:07:08;;;;;;;3.25;1.92;;;10.20;99.90;;;;;;6338490;22;20003;-91
2023/12/31 08:09:49;;;;;;;2.63;2.20;;;11.40;99.90;;;;;;6340062;22;20009;-90
2023/12/31 08:12:19;;;;;;;;;;;10.20;99.90;;;;;;6340824;22;20037;-90
2023/12/31 08:14:47;;;;;;;2.42;1.88;;;10.20;99.90;;;;;;6341656;22;19991;-92
2023/12/31 08:17:18;;;;;;;5.57;2.30;;;10.30;99.90;;;;;;6339507;22;20466;-92
2023/12/31 08:19:46;;;;;;;5.45;2.10;;;11.10;99.90;;;;;;6342858;22;20019;-91
2023/12/31 08:22:17;;;;;;;3.50;2.00;;;10.20;99.90;;;;;;6341617;22;20002;-92
2023/12/31 08:24:52;;;;;;;2.45;2.08;;;11.60;99.90;;;;;;6342584;22;20011;-90
2023/12/31 08:27:18;;;;;;;2.10;1.90;;;11.00;99.90;;;;;;6341815;22;19995;-92
2023/12/31 08:29:48;;;;;;;2.20;1.95;;;11.40;99.90;;;;;;6339999;22;20048;-91
2023/12/31 08:32:27;;;;;;;3.10;2.00;;;11.30;99.90;;;;;;6339702;22;20010;-93
2023/12/31 08:34:55;;;;;;;4.03;1.98;;;10.20;99.90;;;;;;6341994;22;20003;-91
2023/12/31 08:37:21;;;;;;;3.40;2.83;;;10.20;99.90;;;;;;6350547;22;19999;-95
2023/12/31 08:40:20;;;;;;;;;;;;;;;;;;;;;
2023/12/31 08:42:47;;;;;;;3.28;2.30;;;10.20;99.90;;;;;;6337726;22;20682;-92
2023/12/31 08:45:13;;;;;;;2.33;2.10;;;10.20;99.90;;;;;;6339301;22;20070;-89
2023/12/31 08:47:43;;;;;;;1.20;0.95;;;10.20;99.90;;;;;;6338655;22;20549;-89
2023/12/31 08:50:11;;;;;;;5.97;2.10;;;10.00;99.90;;;;;;6339711;22;20034;-92
2023/12/31 08:52:45;;;;;;;3.22;0.88;;;9.90;99.90;;;;;;6340417;22;20705;-94
2023/12/31 08:55:11;;;;;;;2.83;0.85;;;9.70;99.90;;;;;;6347430;22;20003;-92
2023/12/31 08:57:48;;;;;;;3.53;0.98;;;9.60;99.90;;;;;;6347256;22;19999;-93
2023/12/31 09:00:19;;;;;;;1.50;0.73;;;9.30;99.90;;;;;;6339159;22;20011;-87
2023/12/31 09:02:46;;;;;;;1.75;0.80;;;9.30;99.90;;;;;;6338272;22;20011;-89
2023/12/31 09:05:13;;;;;;;0.95;0.70;;;9.30;99.90;;;;;;6340045;22;20410;-90
2023/12/31 09:07:43;;;;;;;2.17;0.90;;;9.30;99.90;;;;;;6343309;22;19999;-90
2023/12/31 09:10:10;;;;;;;2.60;0.87;;;9.40;99.90;;;;;;6342151;22;20228;-89
2023/12/31 09:12:41;;;;;;;1.02;0.60;;;9.40;99.90;;;;;;6340045;22;20010;-91
2023/12/31 09:15:07;;;;;;;2.28;0.85;;;9.40;99.90;;;;;;6344633;22;20445;-92
2023/12/31 09:17:40;;;;;;;1.05;0.77;;;9.40;99.90;;;;;;6340529;22;20013;-89
2023/12/31 09:20:08;;;;;;;5.10;0.60;;;9.60;99.90;;;;;;6340110;22;20046;-91
2023/12/31 09:22:36;;;;;;;1.20;0.50;;;9.50;99.90;;;;;;6341238;22;19995;-92
2023/12/31 09:25:09;;;;;;;1.02;0.68;;;10.40;99.90;;;;;;6339708;22;20019;-92
2023/12/31 09:27:46;;;;;;;1.00;0.90;;;9.50;99.90;;;;;;6343881;22;20041;-95
2023/12/31 09:30:13;;;;;;;1.30;0.80;;;9.50;99.90;;;;;;6339310;22;20055;-92
2023/12/31 09:32:45;;;;;;;2.58;1.10;;;10.30;99.90;;;;;;6339589;22;20021;-91
2023/12/31 09:35:29;;;;;;;2.35;0.60;;;9.50;99.90;;;;;;6353917;22;20003;-93
2023/12/31 09:38:15;;;;;;;3.67;0.60;;;10.20;99.90;;;;;;6349044;22;20010;-90
2023/12/31 09:40:42;;;;;;;0.93;0.60;;;10.00;99.90;;;;;;6356307;22;20156;-76
2023/12/31 09:43:27;;;;;;;0.70;0.60;;;10.50;99.90;;;;;;6351274;22;20002;-91
2023/12/31 09:45:56;;;;;;;3.13;1.17;;;9.40;99.90;;;;;;6340426;22;20037;-90
2023/12/31 09:48:35;;;;;;;2.60;0.80;;;10.10;99.90;;;;;;6343957;22;20022;-93
2023/12/31 09:51:22;;;;;;;0.93;0.70;;;10.40;99.90;;;;;;6339515;22;20310;-89
2023/12/31 09:54:07;;;;;;;3.67;1.00;;;9.40;99.90;;;;;;6337918;22;20011;-91
2023/12/31 09:56:34;;;;;;;1.27;0.70;;;9.50;99.90;;;;;;6345384;22;19994;-91
2023/12/31 09:59:01;;;;;;;0.98;0.60;;;9.40;99.90;;;;;;6338762;22;20050;-85
2023/12/31 10:01:33;;;;;;;2.15;0.60;;;9.50;99.90;;;;;;6341813;22;20010;-89
2023/12/31 10:04:07;;;;;;;1.50;0.77;;;9.60;99.90;;;;;;6345274;22;20031;-94
2023/12/31 10:06:33;;;;;;;1.75;0.73;;;9.50;99.90;;;;;;6348928;22;20074;-93
2023/12/31 10:09:01;;;;;;;1.23;1.08;;;9.60;99.90;;;;;;6341164;22;20034;-91
2023/12/31 10:11:28;;;;;;;2.15;0.80;;;9.60;99.90;;;;;;6342908;22;20143;-92
2023/12/31 10:13:54;;;;;;;4.63;1.17;;;9.60;99.90;;;;;;6341386;22;20449;-88
2023/12/31 10:16:43;;;;;;;2.08;0.90;;;9.60;99.90;;;;;;6341702;22;19999;-94
2023/12/31 10:19:11;;;;;;;1.25;1.15;;;9.70;99.90;;;;;;6339084;22;20069;-87
2023/12/31 10:21:40;;;;;;;1.40;0.82;;;10.40;99.90;;;;;;6336678;22;20380;-87
2023/12/31 10:24:05;;;;;;;1.73;0.75;;;9.70;99.90;;;;;;6336552;22;20282;-87
2023/12/31 10:26:33;;;;;;;0.90;0.63;;;9.80;99.90;;;;;;6335772;22;20471;-87
2023/12/31 10:29:07;;;;;;;1.80;0.80;;;9.70;99.90;;;;;;6335015;22;19995;-92
2023/12/31 10:31:34;;;;;;;1.05;0.70;;;9.70;99.90;;;;;;6338931;22;20003;-90
2023/12/31 10:34:16;;;;;;;5.40;0.77;;;9.80;99.90;;;;;;6337407;22;19998;-83
2023/12/31 10:36:44;;;;;;;6.70;1.10;;;9.70;99.90;;;;;;6341982;22;20027;-90
2023/12/31 10:39:24;;;;;;;0.88;0.73;;;9.80;99.90;;;;;;6351742;22;20430;-90
2023/12/31 10:42:03;;;;;;;1.33;0.90;;;9.80;99.90;;;;;;6353431;22;19999;-91
2023/12/31 10:44:36;;;;;;;1.40;0.90;;;9.80;99.90;;;;;;6353221;22;20074;-92
2023/12/31 10:47:09;;;;;;;1.45;0.90;;;9.80;99.90;;;;;;6343094;22;20225;-92
2023/12/31 10:49:46;;;;;;;3.03;1.20;;;9.80;99.90;;;;;;6346778;22;20037;-91
2023/12/31 10:52:15;;;;;;;2.45;1.08;;;9.80;99.90;;;;;;6350406;22;20009;-92
2023/12/31 10:54:51;;;;;;;2.80;1.17;;;9.80;99.90;;;;;;6358448;22;20015;-90
2023/12/31 10:57:36;;;;;;;0.77;0.70;;;9.80;99.90;;;;;;6354944;22;20117;-91
2023/12/31 11:00:05;;;;;;;1.42;1.05;;;9.80;99.90;;;;;;6340062;22;20015;-91
2023/12/31 11:02:37;;;;;;;1.55;0.75;;;9.60;99.90;;;;;;6339147;22;20563;-91
2023/12/31 11:05:08;;;;;;;1.35;0.55;;;9.50;99.90;;;;;;6339856;22;20006;-91
2023/12/31 11:07:35;;;;;;;1.98;0.60;;;9.40;99.90;;;;;;6339865;22;20361;-90
2023/12/31 11:10:06;;;;;;;2.80;0.80;;;9.20;99.90;;;;;;6340509;22;19995;-91
2023/12/31 11:12:34;;;;;;;2.17;1.50;;;9.10;99.90;;;;;;6340832;22;20003;-92
2023/12/31 11:15:13;;;;;;;1.73;0.50;;;9.10;99.90;;;;;;6341551;22;20327;-90
2023/12/31 11:17:57;;;;;;;3.43;0.63;;;9.10;99.90;;;;;;6341383;22;20033;-90
2023/12/31 11:20:47;;;;;;;1.25;0.70;;;9.10;99.90;;;;;;6346587;22;20257;-91
2023/12/31 11:23:31;;;;;;;7.10;1.60;;;9.00;99.90;;;;;;6348024;22;19999;-91
2023/12/31 11:26:07;;;;;;;4.22;1.70;;;9.00;99.90;;;;;;6342328;22;20029;-90
2023/12/31 11:28:35;;;;;;;3.92;0.80;;;9.00;99.90;;;;;;6340897;22;20003;-90
2023/12/31 11:31:09;;;;;;;6.22;1.02;;;9.00;99.90;;;;;;6343211;22;19999;-91
2023/12/31 11:33:39;;;;;;;3.60;1.13;;;9.00;99.90;;;;;;6341957;22;20003;-91
2023/12/31 11:36:15;;;;;;;5.57;1.25;;;9.00;99.90;;;;;;6342156;22;20015;-89
2023/12/31 11:38:56;;;;;;;3.60;0.80;;;9.00;99.90;;;;;;6339145;22;20006;-91
2023/12/31 11:41:25;;;;;;;5.28;2.22;;;9.10;99.90;;;;;;6339796;22;19999;-90
2023/12/31 11:43:53;;;;;;;5.55;1.17;;;9.00;99.90;;;;;;6339973;22;20299;-90
2023/12/31 11:46:38;;;;;;;2.42;1.20;;;9.10;99.90;;;;;;6338961;22;20423;-91
2023/12/31 11:49:06;;;;;;;2.53;0.88;;;9.10;99.90;;;;;;6339714;22;20002;-91
2023/12/31 11:52:02;;;;;;;5.55;1.13;;;9.00;99.90;;;;;;6337124;22;20010;-87
2023/12/31 11:54:35;;;;;;;9.48;1.83;;;9.10;99.90;;;;;;6338041;22;20014;-89
2023/12/31 11:57:03;;;;;;;3.50;1.25;;;10.00;99.90;;;;;;6346481;22;20014;-90
2023/12/31 11:59:38;;;;;;;6.47;1.30;;;9.10;99.90;;;;;;6339106;22;20003;-93
2023/12/31 12:02:10;;;;;;;6.00;1.00;;;9.20;99.90;;;;;;6347011;22;19999;-92
2023/12/31 12:04:41;;;;;;;9.82;1.25;;;9.20;99.90;;;;;;6344227;22;20056;-95
2023/12/31 12:07:09;;;;;;;7.70;1.10;;;9.30;99.90;;;;;;6341433;22;20002;-91
2023/12/31 12:09:37;;;;;;;5.07;1.33;;;9.20;99.90;;;;;;6343066;22;19995;-88
2023/12/31 12:12:10;;;;;;;4.10;1.70;;;9.30;99.90;;;;;;6348525;22;20044;-94
2023/12/31 12:14:35;;;;;;;3.20;1.38;;;9.30;99.90;;;;;;6351225;22;20048;-92
2023/12/31 12:17:27;;;;;;;4.65;0.90;;;10.60;99.90;;;;;;6365023;22;20002;-91
2023/12/31 12:20:18;;;;;;;8.32;2.00;;;9.30;99.90;;;;;;6348219;22;20015;-93
2023/12/31 12:22:49;;;;;;;4.75;1.92;;;9.30;99.90;;;;;;6345058;22;20006;-89
2023/12/31 12:25:31;;;;;;;2.83;1.23;;;9.30;99.90;;;;;;6345952;22;19995;-90
2023/12/31 12:28:07;;;;;;;9.60;2.17;;;9.20;99.90;;;;;;6343277;22;20002;-91
2023/12/31 12:30:53;;;;;;;8.93;1.30;;;9.30;99.90;;;;;;6346161;22;20086;-92
2023/12/31 12:33:26;;;;;;;8.70;1.90;;;9.30;99.90;;;;;;6343109;22;20007;-92
2023/12/31 12:36:03;;;;;;;8.18;2.42;;;9.30;99.90;;;;;;6338565;22;20022;-87
2023/12/31 12:38:30;;;;;;;5.63;1.70;;;10.30;99.90;;;;;;6337736;22;20003;-91
2023/12/31 12:41:22;;;;;;;4.90;1.35;;;9.20;99.90;;;;;;6340274;22;20003;-88
2023/12/31 12:44:00;;;;;;;4.90;1.70;;;9.20;99.90;;;;;;6341653;22;20047;-90
2023/12/31 12:46:30;;;;;;;6.47;2.00;;;9.30;99.90;;;;;;6340097;22;20125;-88
2023/12/31 12:48:58;;;;;;;7.50;1.67;;;9.20;99.90;;;;;;6338790;22;19995;-89
2023/12/31 12:51:24;;;;;;;3.60;1.40;;;9.40;99.90;;;;;;6339467;22;20034;-86
2023/12/31 12:53:58;;;;;;;7.03;2.33;;;9.30;99.90;;;;;;6337821;22;20431;-92
2023/12/31 12:56:24;;;;;;;7.15;1.77;;;9.20;99.90;;;;;;6336337;22;20074;-87
2023/12/31 12:58:52;;;;;;;6.53;1.90;;;10.20;99.90;;;;;;6335110;22;20430;-88
2023/12/31 13:01:17;;;;;;;6.63;2.83;;;9.20;99.90;;;;;;6336158;22;20010;-84
2023/12/31 13:03:43;;;;;;;5.57;1.58;;;9.30;99.90;;;;;;6335467;22;20010;-88